sensor_id;sensor_type;location;lat;lon;timestamp;temperature;humidity
47961;DHT22;33721;48.852;9.936;2023-12-07T00:01:26;1.50;99.90
47961;DHT22;33721;48.852;9.936;2023-12-07T00:03:51;1.50;99.90
47961;DHT22;33721;48.852;9.936;2023-12-07T00:06:17;1.50;99.90
47961;DHT22;33721;48.852;9.936;2023-12-07T00:08:43;1.50;99.90
47961;DHT22;33721;48.852;9.936;2023-12-07T00:11:08;1.40;99.90
47961;DHT22;33721;48.852;9.936;2023-12-07T00:13:34;1.40;99.90
47961;DHT22;33721;48.852;9.936;2023-12-07T00:16:00;1.40;99.90
47961;DHT22;33721;48.852;9.936;2023-12-07T00:18:25;1.50;99.90
47961;DHT22;33721;48.852;9.936;2023-12-07T00:20:51;1.40;99.90
47961;DHT22;33721;48.852;9.936;2023-12-07T00:23:16;1.40;99.90
47961;DHT22;33721;48.852;9.936;2023-12-07T00:25:42;1.40;99.90
47961;DHT22;33721;48.852;9.936;2023-12-07T00:28:08;1.40;99.90
47961;DHT22;33721;48.852;9.936;2023-12-07T00:30:33;1.40;99.90
47961;DHT22;33721;48.852;9.936;2023-12-07T00:32:59;1.50;99.90
47961;DHT22;33721;48.852;9.936;2023-12-07T00:35:25;1.50;99.90
47961;DHT22;33721;48.852;9.936;2023-12-07T00:37:57;1.50;99.90
47961;DHT22;33721;48.852;9.936;2023-12-07T00:40:24;1.50;99.90
47961;DHT22;33721;48.852;9.936;2023-12-07T00:42:49;1.50;99.90
47961;DHT22;33721;48.852;9.936;2023-12-07T00:45:15;1.50;99.90
47961;DHT22;33721;48.852;9.936;2023-12-07T00:47:41;1.50;99.90
47961;DHT22;33721;48.852;9.936;2023-12-07T00:50:08;1.40;99.90
47961;DHT22;33721;48.852;9.936;2023-12-07T00:52:33;1.30;99.90
47961;DHT22;33721;48.852;9.936;2023-12-07T00:54:59;1.10;99.90
47961;DHT22;33721;48.852;9.936;2023-12-07T00:57:25;1.10;99.90
47961;DHT22;33721;48.852;9.936;2023-12-07T00:59:50;1.20;99.90
47961;DHT22;33721;48.852;9.936;2023-12-07T01:02:16;1.20;99.90
47961;DHT22;33721;48.852;9.936;2023-12-07T01:04:41;1.20;99.90
47961;DHT22;33721;48.852;9.936;2023-12-07T01:07:07;1.30;99.90
47961;DHT22;33721;48.852;9.936;2023-12-07T01:09:33;1.30;99.90
47961;DHT22;33721;48.852;9.936;2023-12-07T01:11:59;1.30;99.90
47961;DHT22;33721;48.852;9.936;2023-12-07T01:14:24;1.20;99.90
47961;DHT22;33721;48.852;9.936;2023-12-07T01:16:50;1.20;99.90
47961;DHT22;33721;48.852;9.936;2023-12-07T01:19:16;1.20;99.90
47961;DHT22;33721;48.852;9.936;2023-12-07T01:21:42;1.30;99.90
47961;DHT22;33721;48.852;9.936;2023-12-07T01:24:08;1.30;99.90
47961;DHT22;33721;48.852;9.936;2023-12-07T01:26:34;1.30;99.90
47961;DHT22;33721;48.852;9.936;2023-12-07T01:29:00;1.30;99.90
47961;DHT22;33721;48.852;9.936;2023-12-07T01:31:25;1.30;99.90
47961;DHT22;33721;48.852;9.936;2023-12-07T01:33:51;1.30;99.90
47961;DHT22;33721;48.852;9.936;2023-12-07T01:36:17;1.30;99.90
47961;DHT22;33721;48.852;9.936;2023-12-07T01:38:42;1.40;99.90
47961;DHT22;33721;48.852;9.936;2023-12-07T01:41:09;1.40;99.90
47961;DHT22;33721;48.852;9.936;2023-12-07T01:43:34;1.50;99.90
47961;DHT22;33721;48.852;9.936;2023-12-07T01:46:00;1.50;99.90
47961;DHT22;33721;48.852;9.936;2023-12-07T01:48:27;1.50;99.90
47961;DHT22;33721;48.852;9.936;2023-12-07T01:50:54;1.40;99.90
47961;DHT22;33721;48.852;9.936;2023-12-07T01:53:22;1.50;99.90
47961;DHT22;33721;48.852;9.936;2023-12-07T01:55:48;1.50;99.90
47961;DHT22;33721;48.852;9.936;2023-12-07T01:58:14;1.50;99.90
47961;DHT22;33721;48.852;9.936;2023-12-07T02:00:42;1.50;99.90
47961;DHT22;33721;48.852;9.936;2023-12-07T02:03:08;1.50;99.90
47961;DHT22;33721;48.852;9.936;2023-12-07T02:05:35;1.40;99.90
47961;DHT22;33721;48.852;9.936;2023-12-07T02:08:02;1.40;99.90
47961;DHT22;33721;48.852;9.936;2023-12-07T02:10:27;1.40;99.90
47961;DHT22;33721;48.852;9.936;2023-12-07T02:12:54;1.40;99.90
47961;DHT22;33721;48.852;9.936;2023-12-07T02:15:20;1.40;99.90
47961;DHT22;33721;48.852;9.936;2023-12-07T02:20:47;1.40;99.90
47961;DHT22;33721;48.852;9.936;2023-12-07T02:23:15;1.40;99.90
47961;DHT22;33721;48.852;9.936;2023-12-07T02:25:51;1.50;99.90
47961;DHT22;33721;48.852;9.936;2023-12-07T02:28:17;1.50;99.90
47961;DHT22;33721;48.852;9.936;2023-12-07T02:30:43;1.50;99.90
47961;DHT22;33721;48.852;9.936;2023-12-07T02:33:09;1.50;99.90
47961;DHT22;33721;48.852;9.936;2023-12-07T02:35:36;1.60;99.90
47961;DHT22;33721;48.852;9.936;2023-12-07T02:38:02;1.50;99.90
47961;DHT22;33721;48.852;9.936;2023-12-07T02:40:29;1.50;99.90
47961;DHT22;33721;48.852;9.936;2023-12-07T02:42:56;1.50;99.90
47961;DHT22;33721;48.852;9.936;2023-12-07T02:45:22;1.50;99.90
47961;DHT22;33721;48.852;9.936;2023-12-07T02:47:48;1.50;99.90
47961;DHT22;33721;48.852;9.936;2023-12-07T02:50:14;1.50;99.90
47961;DHT22;33721;48.852;9.936;2023-12-07T02:52:40;1.50;99.90
47961;DHT22;33721;48.852;9.936;2023-12-07T02:55:06;1.50;99.90
47961;DHT22;33721;48.852;9.936;2023-12-07T02:57:32;1.50;99.90
47961;DHT22;33721;48.852;9.936;2023-12-07T02:59:59;1.50;99.90
47961;DHT22;33721;48.852;9.936;2023-12-07T03:02:25;1.50;99.90
47961;DHT22;33721;48.852;9.936;2023-12-07T03:04:50;1.60;99.90
47961;DHT22;33721;48.852;9.936;2023-12-07T03:07:16;1.60;99.90
47961;DHT22;33721;48.852;9.936;2023-12-07T03:09:42;1.60;99.90
47961;DHT22;33721;48.852;9.936;2023-12-07T03:12:08;1.60;99.90
47961;DHT22;33721;48.852;9.936;2023-12-07T03:14:33;1.60;99.90
47961;DHT22;33721;48.852;9.936;2023-12-07T03:16:59;1.50;99.90
47961;DHT22;33721;48.852;9.936;2023-12-07T03:19:25;1.50;99.90
47961;DHT22;33721;48.852;9.936;2023-12-07T03:21:50;1.50;99.90
47961;DHT22;33721;48.852;9.936;2023-12-07T03:24:16;1.40;99.90
47961;DHT22;33721;48.852;9.936;2023-12-07T03:26:42;1.50;99.90
47961;DHT22;33721;48.852;9.936;2023-12-07T03:29:08;1.40;99.90
47961;DHT22;33721;48.852;9.936;2023-12-07T03:31:33;1.50;99.90
47961;DHT22;33721;48.852;9.936;2023-12-07T03:33:59;1.40;99.90
47961;DHT22;33721;48.852;9.936;2023-12-07T03:36:26;1.40;99.90
47961;DHT22;33721;48.852;9.936;2023-12-07T03:38:52;1.40;99.90
47961;DHT22;33721;48.852;9.936;2023-12-07T03:41:18;1.40;99.90
47961;DHT22;33721;48.852;9.936;2023-12-07T03:43:44;1.40;99.90
47961;DHT22;33721;48.852;9.936;2023-12-07T03:46:09;1.40;99.90
47961;DHT22;33721;48.852;9.936;2023-12-07T03:48:35;1.40;99.90
47961;DHT22;33721;48.852;9.936;2023-12-07T03:51:01;1.40;99.90
47961;DHT22;33721;48.852;9.936;2023-12-07T03:53:27;1.40;99.90
47961;DHT22;33721;48.852;9.936;2023-12-07T03:55:53;1.40;99.90
47961;DHT22;33721;48.852;9.936;2023-12-07T03:58:19;1.40;99.90
47961;DHT22;33721;48.852;9.936;2023-12-07T04:00:45;1.40;99.90
47961;DHT22;33721;48.852;9.936;2023-12-07T04:03:10;1.40;99.90
47961;DHT22;33721;48.852;9.936;2023-12-07T04:05:36;1.40;99.90
47961;DHT22;33721;48.852;9.936;2023-12-07T04:08:03;1.40;99.90
47961;DHT22;33721;48.852;9.936;2023-12-07T04:10:30;1.30;99.90
47961;DHT22;33721;48.852;9.936;2023-12-07T04:12:56;1.30;99.90
47961;DHT22;33721;48.852;9.936;2023-12-07T04:15:22;1.30;99.90
47961;DHT22;33721;48.852;9.936;2023-12-07T04:17:48;1.30;99.90
47961;DHT22;33721;48.852;9.936;2023-12-07T04:20:14;1.30;99.90
47961;DHT22;33721;48.852;9.936;2023-12-07T04:22:40;1.30;99.90
47961;DHT22;33721;48.852;9.936;2023-12-07T04:25:06;1.30;99.90
47961;DHT22;33721;48.852;9.936;2023-12-07T04:27:33;1.30;99.90
47961;DHT22;33721;48.852;9.936;2023-12-07T04:29:59;1.30;99.90
47961;DHT22;33721;48.852;9.936;2023-12-07T04:32:24;1.30;99.90
47961;DHT22;33721;48.852;9.936;2023-12-07T04:34:51;1.30;99.90
47961;DHT22;33721;48.852;9.936;2023-12-07T04:37:17;1.20;99.90
47961;DHT22;33721;48.852;9.936;2023-12-07T04:39:43;1.20;99.90
47961;DHT22;33721;48.852;9.936;2023-12-07T04:42:08;1.20;99.90
47961;DHT22;33721;48.852;9.936;2023-12-07T04:44:34;1.20;99.90
47961;DHT22;33721;48.852;9.936;2023-12-07T04:46:59;1.10;99.90
47961;DHT22;33721;48.852;9.936;2023-12-07T04:49:26;1.10;99.90
47961;DHT22;33721;48.852;9.936;2023-12-07T04:51:51;1.20;99.90
47961;DHT22;33721;48.852;9.936;2023-12-07T04:54:17;1.20;99.90
47961;DHT22;33721;48.852;9.936;2023-12-07T04:56:43;1.30;99.90
47961;DHT22;33721;48.852;9.936;2023-12-07T04:59:09;1.30;99.90
47961;DHT22;33721;48.852;9.936;2023-12-07T05:01:38;1.30;99.90
47961;DHT22;33721;48.852;9.936;2023-12-07T05:04:04;1.20;99.90
47961;DHT22;33721;48.852;9.936;2023-12-07T05:06:31;1.30;99.90
47961;DHT22;33721;48.852;9.936;2023-12-07T05:08:57;1.20;99.90
47961;DHT22;33721;48.852;9.936;2023-12-07T05:11:23;1.20;99.90
47961;DHT22;33721;48.852;9.936;2023-12-07T05:13:49;1.20;99.90
47961;DHT22;33721;48.852;9.936;2023-12-07T05:16:14;1.10;99.90
47961;DHT22;33721;48.852;9.936;2023-12-07T05:18:40;1.10;99.90
47961;DHT22;33721;48.852;9.936;2023-12-07T05:21:06;1.20;99.90
47961;DHT22;33721;48.852;9.936;2023-12-07T05:23:32;1.10;99.90
47961;DHT22;33721;48.852;9.936;2023-12-07T05:25:57;1.10;99.90
47961;DHT22;33721;48.852;9.936;2023-12-07T05:28:23;1.10;99.90
47961;DHT22;33721;48.852;9.936;2023-12-07T05:30:49;1.10;99.90
47961;DHT22;33721;48.852;9.936;2023-12-07T05:33:15;1.00;99.90
47961;DHT22;33721;48.852;9.936;2023-12-07T05:35:41;1.00;99.90
47961;DHT22;33721;48.852;9.936;2023-12-07T05:38:06;0.90;99.90
47961;DHT22;33721;48.852;9.936;2023-12-07T05:40:35;0.90;99.90
47961;DHT22;33721;48.852;9.936;2023-12-07T05:43:01;0.90;99.90
47961;DHT22;33721;48.852;9.936;2023-12-07T05:45:26;0.80;99.90
47961;DHT22;33721;48.852;9.936;2023-12-07T05:47:52;0.70;99.90
47961;DHT22;33721;48.852;9.936;2023-12-07T05:50:18;0.60;99.90
47961;DHT22;33721;48.852;9.936;2023-12-07T05:52:43;0.60;99.90
47961;DHT22;33721;48.852;9.936;2023-12-07T05:55:09;0.50;99.90
47961;DHT22;33721;48.852;9.936;2023-12-07T05:57:35;0.50;99.90
47961;DHT22;33721;48.852;9.936;2023-12-07T06:00:01;0.40;99.90
47961;DHT22;33721;48.852;9.936;2023-12-07T06:02:26;0.40;99.90
47961;DHT22;33721;48.852;9.936;2023-12-07T06:04:53;0.30;99.90
47961;DHT22;33721;48.852;9.936;2023-12-07T06:07:18;0.30;99.90
47961;DHT22;33721;48.852;9.936;2023-12-07T06:09:44;0.30;99.90
47961;DHT22;33721;48.852;9.936;2023-12-07T06:12:10;0.30;99.90
47961;DHT22;33721;48.852;9.936;2023-12-07T06:14:35;0.30;99.90
47961;DHT22;33721;48.852;9.936;2023-12-07T06:17:01;0.30;99.90
47961;DHT22;33721;48.852;9.936;2023-12-07T06:19:33;0.30;99.90
47961;DHT22;33721;48.852;9.936;2023-12-07T06:22:01;0.30;99.90
47961;DHT22;33721;48.852;9.936;2023-12-07T06:24:27;0.30;99.90
47961;DHT22;33721;48.852;9.936;2023-12-07T06:26:53;0.20;99.90
47961;DHT22;33721;48.852;9.936;2023-12-07T06:29:19;0.20;99.90
47961;DHT22;33721;48.852;9.936;2023-12-07T06:31:45;0.10;99.90
47961;DHT22;33721;48.852;9.936;2023-12-07T06:34:11;0.10;99.90
47961;DHT22;33721;48.852;9.936;2023-12-07T06:36:37;0.00;99.90
47961;DHT22;33721;48.852;9.936;2023-12-07T06:39:02;0.00;99.90
47961;DHT22;33721;48.852;9.936;2023-12-07T06:41:28;0.00;99.90
47961;DHT22;33721;48.852;9.936;2023-12-07T06:43:54;-0.10;99.90
47961;DHT22;33721;48.852;9.936;2023-12-07T06:46:20;-0.10;99.90
47961;DHT22;33721;48.852;9.936;2023-12-07T06:48:46;-0.20;99.90
47961;DHT22;33721;48.852;9.936;2023-12-07T06:51:11;-0.30;99.90
47961;DHT22;33721;48.852;9.936;2023-12-07T06:53:40;-0.30;99.90
47961;DHT22;33721;48.852;9.936;2023-12-07T06:56:07;-0.20;99.90
47961;DHT22;33721;48.852;9.936;2023-12-07T06:58:33;-0.30;99.90
47961;DHT22;33721;48.852;9.936;2023-12-07T07:00:58;-0.20;99.90
47961;DHT22;33721;48.852;9.936;2023-12-07T07:03:24;-0.20;99.90
47961;DHT22;33721;48.852;9.936;2023-12-07T07:05:50;-0.20;99.90
47961;DHT22;33721;48.852;9.936;2023-12-07T07:08:16;-0.20;99.90
47961;DHT22;33721;48.852;9.936;2023-12-07T07:10:41;-0.20;99.90
47961;DHT22;33721;48.852;9.936;2023-12-07T07:13:07;-0.30;99.90
47961;DHT22;33721;48.852;9.936;2023-12-07T07:15:33;-0.40;99.90
47961;DHT22;33721;48.852;9.936;2023-12-07T07:17:59;-0.50;99.90
47961;DHT22;33721;48.852;9.936;2023-12-07T07:20:25;-0.50;99.90
47961;DHT22;33721;48.852;9.936;2023-12-07T07:22:51;-0.60;99.90
47961;DHT22;33721;48.852;9.936;2023-12-07T07:25:16;-0.60;99.90
47961;DHT22;33721;48.852;9.936;2023-12-07T07:27:45;-0.60;99.90
47961;DHT22;33721;48.852;9.936;2023-12-07T07:30:12;-0.60;99.90
47961;DHT22;33721;48.852;9.936;2023-12-07T07:32:38;-0.60;99.90
47961;DHT22;33721;48.852;9.936;2023-12-07T07:35:03;-0.70;99.90
47961;DHT22;33721;48.852;9.936;2023-12-07T07:37:29;-0.70;99.90
47961;DHT22;33721;48.852;9.936;2023-12-07T07:39:55;-0.70;99.90
47961;DHT22;33721;48.852;9.936;2023-12-07T07:42:20;-0.70;99.90
47961;DHT22;33721;48.852;9.936;2023-12-07T07:44:46;-0.80;99.90
47961;DHT22;33721;48.852;9.936;2023-12-07T07:47:12;-0.80;99.90
47961;DHT22;33721;48.852;9.936;2023-12-07T07:49:37;-0.90;99.90
47961;DHT22;33721;48.852;9.936;2023-12-07T07:52:03;-0.90;99.90
47961;DHT22;33721;48.852;9.936;2023-12-07T07:54:30;-0.80;99.90
47961;DHT22;33721;48.852;9.936;2023-12-07T07:56:56;-0.70;99.90
47961;DHT22;33721;48.852;9.936;2023-12-07T07:59:22;-0.70;99.90
47961;DHT22;33721;48.852;9.936;2023-12-07T08:01:48;-0.70;99.90
47961;DHT22;33721;48.852;9.936;2023-12-07T08:04:13;-0.70;99.90
47961;DHT22;33721;48.852;9.936;2023-12-07T08:06:39;-0.60;99.90
47961;DHT22;33721;48.852;9.936;2023-12-07T08:09:05;-0.60;99.90
47961;DHT22;33721;48.852;9.936;2023-12-07T08:11:30;-0.60;99.90
47961;DHT22;33721;48.852;9.936;2023-12-07T08:13:58;-0.50;99.90
47961;DHT22;33721;48.852;9.936;2023-12-07T08:16:23;-0.50;99.90
47961;DHT22;33721;48.852;9.936;2023-12-07T08:18:49;-0.40;99.90
47961;DHT22;33721;48.852;9.936;2023-12-07T08:21:24;-0.40;99.90
47961;DHT22;33721;48.852;9.936;2023-12-07T08:23:51;-0.40;99.90
47961;DHT22;33721;48.852;9.936;2023-12-07T08:26:17;-0.40;99.90
47961;DHT22;33721;48.852;9.936;2023-12-07T08:28:43;-0.40;99.90
47961;DHT22;33721;48.852;9.936;2023-12-07T08:31:09;-0.30;99.90
47961;DHT22;33721;48.852;9.936;2023-12-07T08:33:35;-0.20;99.90
47961;DHT22;33721;48.852;9.936;2023-12-07T08:36:02;-0.20;99.90
47961;DHT22;33721;48.852;9.936;2023-12-07T08:38:27;-0.10;99.90
47961;DHT22;33721;48.852;9.936;2023-12-07T08:40:53;-0.10;99.90
47961;DHT22;33721;48.852;9.936;2023-12-07T08:43:21;-0.10;99.90
47961;DHT22;33721;48.852;9.936;2023-12-07T08:45:49;0.00;99.90
47961;DHT22;33721;48.852;9.936;2023-12-07T08:48:15;0.00;99.90
47961;DHT22;33721;48.852;9.936;2023-12-07T08:50:40;0.00;99.90
47961;DHT22;33721;48.852;9.936;2023-12-07T08:53:06;0.00;99.90
47961;DHT22;33721;48.852;9.936;2023-12-07T08:55:32;0.00;99.90
47961;DHT22;33721;48.852;9.936;2023-12-07T08:57:58;0.10;99.90
47961;DHT22;33721;48.852;9.936;2023-12-07T09:00:25;0.20;99.90
47961;DHT22;33721;48.852;9.936;2023-12-07T09:02:51;0.40;99.90
47961;DHT22;33721;48.852;9.936;2023-12-07T09:05:17;0.40;99.90
47961;DHT22;33721;48.852;9.936;2023-12-07T09:07:44;0.50;99.90
47961;DHT22;33721;48.852;9.936;2023-12-07T09:10:10;0.50;99.90
47961;DHT22;33721;48.852;9.936;2023-12-07T09:12:36;0.60;99.90
47961;DHT22;33721;48.852;9.936;2023-12-07T09:15:05;0.60;99.90
47961;DHT22;33721;48.852;9.936;2023-12-07T09:17:32;0.50;99.90
47961;DHT22;33721;48.852;9.936;2023-12-07T09:19:58;0.50;99.90
47961;DHT22;33721;48.852;9.936;2023-12-07T09:22:24;0.70;99.90
47961;DHT22;33721;48.852;9.936;2023-12-07T09:24:50;1.00;99.90
47961;DHT22;33721;48.852;9.936;2023-12-07T09:27:16;1.20;99.90
47961;DHT22;33721;48.852;9.936;2023-12-07T09:29:41;1.30;99.90
47961;DHT22;33721;48.852;9.936;2023-12-07T09:32:07;1.40;99.90
47961;DHT22;33721;48.852;9.936;2023-12-07T09:34:33;1.50;99.90
47961;DHT22;33721;48.852;9.936;2023-12-07T09:37:09;1.60;99.90
47961;DHT22;33721;48.852;9.936;2023-12-07T09:39:35;1.70;99.90
47961;DHT22;33721;48.852;9.936;2023-12-07T09:42:01;1.90;99.90
47961;DHT22;33721;48.852;9.936;2023-12-07T09:44:27;2.00;99.90
47961;DHT22;33721;48.852;9.936;2023-12-07T09:46:53;2.20;99.90
47961;DHT22;33721;48.852;9.936;2023-12-07T09:49:20;2.30;99.90
47961;DHT22;33721;48.852;9.936;2023-12-07T09:51:46;2.40;99.90
47961;DHT22;33721;48.852;9.936;2023-12-07T09:54:12;2.30;99.90
47961;DHT22;33721;48.852;9.936;2023-12-07T09:56:38;2.30;99.90
47961;DHT22;33721;48.852;9.936;2023-12-07T09:59:04;2.30;99.90
47961;DHT22;33721;48.852;9.936;2023-12-07T10:01:31;2.40;99.90
47961;DHT22;33721;48.852;9.936;2023-12-07T10:06:45;2.50;99.90
47961;DHT22;33721;48.852;9.936;2023-12-07T10:09:11;2.60;99.90
47961;DHT22;33721;48.852;9.936;2023-12-07T10:11:38;2.70;99.90
47961;DHT22;33721;48.852;9.936;2023-12-07T10:14:06;2.80;99.90
47961;DHT22;33721;48.852;9.936;2023-12-07T10:16:33;2.90;99.90
47961;DHT22;33721;48.852;9.936;2023-12-07T10:19:14;3.00;99.90
47961;DHT22;33721;48.852;9.936;2023-12-07T10:21:49;3.20;99.90
47961;DHT22;33721;48.852;9.936;2023-12-07T10:24:22;3.20;99.90
47961;DHT22;33721;48.852;9.936;2023-12-07T10:26:48;3.20;99.90
47961;DHT22;33721;48.852;9.936;2023-12-07T10:29:17;3.20;99.90
47961;DHT22;33721;48.852;9.936;2023-12-07T10:31:43;3.20;99.90
47961;DHT22;33721;48.852;9.936;2023-12-07T10:34:09;3.30;99.90
47961;DHT22;33721;48.852;9.936;2023-12-07T10:36:35;3.30;99.90
47961;DHT22;33721;48.852;9.936;2023-12-07T10:39:01;3.40;99.90
47961;DHT22;33721;48.852;9.936;2023-12-07T10:41:27;3.50;99.90
47961;DHT22;33721;48.852;9.936;2023-12-07T10:43:57;3.60;99.90
47961;DHT22;33721;48.852;9.936;2023-12-07T10:46:25;3.60;99.90
47961;DHT22;33721;48.852;9.936;2023-12-07T10:48:56;3.60;99.90
47961;DHT22;33721;48.852;9.936;2023-12-07T10:51:35;3.80;99.90
47961;DHT22;33721;48.852;9.936;2023-12-07T10:54:04;3.80;99.90
47961;DHT22;33721;48.852;9.936;2023-12-07T10:56:39;3.90;99.90
47961;DHT22;33721;48.852;9.936;2023-12-07T10:59:09;3.90;99.90
47961;DHT22;33721;48.852;9.936;2023-12-07T11:01:40;3.90;99.90
47961;DHT22;33721;48.852;9.936;2023-12-07T11:04:14;3.90;99.90
47961;DHT22;33721;48.852;9.936;2023-12-07T11:06:46;4.00;99.90
47961;DHT22;33721;48.852;9.936;2023-12-07T11:09:30;4.40;99.90
47961;DHT22;33721;48.852;9.936;2023-12-07T11:12:25;4.40;99.90
47961;DHT22;33721;48.852;9.936;2023-12-07T11:14:53;4.50;99.90
47961;DHT22;33721;48.852;9.936;2023-12-07T11:17:20;4.70;99.90
47961;DHT22;33721;48.852;9.936;2023-12-07T11:19:47;4.60;99.90
47961;DHT22;33721;48.852;9.936;2023-12-07T11:22:14;4.60;99.90
47961;DHT22;33721;48.852;9.936;2023-12-07T11:24:56;4.60;99.90
47961;DHT22;33721;48.852;9.936;2023-12-07T11:27:29;4.50;99.90
47961;DHT22;33721;48.852;9.936;2023-12-07T11:29:59;4.80;99.90
47961;DHT22;33721;48.852;9.936;2023-12-07T11:32:26;5.00;99.90
47961;DHT22;33721;48.852;9.936;2023-12-07T11:34:52;4.80;99.90
47961;DHT22;33721;48.852;9.936;2023-12-07T11:37:19;4.80;99.90
47961;DHT22;33721;48.852;9.936;2023-12-07T11:39:45;4.90;99.90
47961;DHT22;33721;48.852;9.936;2023-12-07T11:42:18;4.80;99.90
47961;DHT22;33721;48.852;9.936;2023-12-07T11:44:47;5.10;99.90
47961;DHT22;33721;48.852;9.936;2023-12-07T11:47:20;5.20;99.90
47961;DHT22;33721;48.852;9.936;2023-12-07T11:49:46;5.10;99.90
47961;DHT22;33721;48.852;9.936;2023-12-07T11:52:16;5.20;99.90
47961;DHT22;33721;48.852;9.936;2023-12-07T11:54:46;5.30;99.90
47961;DHT22;33721;48.852;9.936;2023-12-07T11:57:16;5.30;99.90
47961;DHT22;33721;48.852;9.936;2023-12-07T11:59:44;5.40;99.90
47961;DHT22;33721;48.852;9.936;2023-12-07T12:02:13;5.50;99.90
47961;DHT22;33721;48.852;9.936;2023-12-07T12:04:42;5.50;99.90
47961;DHT22;33721;48.852;9.936;2023-12-07T12:07:08;5.50;99.90
47961;DHT22;33721;48.852;9.936;2023-12-07T12:09:34;5.60;99.90
47961;DHT22;33721;48.852;9.936;2023-12-07T12:12:00;5.90;99.90
47961;DHT22;33721;48.852;9.936;2023-12-07T12:14:26;6.40;99.90
47961;DHT22;33721;48.852;9.936;2023-12-07T12:16:53;6.70;99.90
47961;DHT22;33721;48.852;9.936;2023-12-07T12:19:18;6.70;99.90
47961;DHT22;33721;48.852;9.936;2023-12-07T12:21:45;6.80;99.90
47961;DHT22;33721;48.852;9.936;2023-12-07T12:24:12;7.00;99.90
47961;DHT22;33721;48.852;9.936;2023-12-07T12:26:41;7.10;99.90
47961;DHT22;33721;48.852;9.936;2023-12-07T12:29:07;7.10;99.90
47961;DHT22;33721;48.852;9.936;2023-12-07T12:31:34;7.30;99.90
47961;DHT22;33721;48.852;9.936;2023-12-07T12:34:06;7.50;99.90
47961;DHT22;33721;48.852;9.936;2023-12-07T12:36:34;7.40;99.90
47961;DHT22;33721;48.852;9.936;2023-12-07T12:38:59;7.40;99.90
47961;DHT22;33721;48.852;9.936;2023-12-07T12:41:25;7.40;99.90
47961;DHT22;33721;48.852;9.936;2023-12-07T12:43:52;7.30;99.90
47961;DHT22;33721;48.852;9.936;2023-12-07T12:46:17;7.50;99.90
47961;DHT22;33721;48.852;9.936;2023-12-07T12:48:59;7.60;99.90
47961;DHT22;33721;48.852;9.936;2023-12-07T12:51:27;7.80;99.90
47961;DHT22;33721;48.852;9.936;2023-12-07T12:53:54;7.90;99.90
47961;DHT22;33721;48.852;9.936;2023-12-07T12:56:21;7.90;99.90
47961;DHT22;33721;48.852;9.936;2023-12-07T12:58:49;8.00;99.90
47961;DHT22;33721;48.852;9.936;2023-12-07T13:01:16;8.10;99.90
47961;DHT22;33721;48.852;9.936;2023-12-07T13:03:46;7.90;99.90
47961;DHT22;33721;48.852;9.936;2023-12-07T13:06:13;7.70;99.90
47961;DHT22;33721;48.852;9.936;2023-12-07T13:08:40;7.60;99.90
47961;DHT22;33721;48.852;9.936;2023-12-07T13:11:06;7.60;99.90
47961;DHT22;33721;48.852;9.936;2023-12-07T13:13:31;7.60;99.90
47961;DHT22;33721;48.852;9.936;2023-12-07T13:15:57;7.80;99.90
47961;DHT22;33721;48.852;9.936;2023-12-07T13:18:23;7.90;99.90
47961;DHT22;33721;48.852;9.936;2023-12-07T13:20:48;7.70;99.90
47961;DHT22;33721;48.852;9.936;2023-12-07T13:23:14;7.80;99.90
47961;DHT22;33721;48.852;9.936;2023-12-07T13:25:39;7.80;99.90
47961;DHT22;33721;48.852;9.936;2023-12-07T13:28:06;7.80;99.90
47961;DHT22;33721;48.852;9.936;2023-12-07T13:30:34;7.90;99.90
47961;DHT22;33721;48.852;9.936;2023-12-07T13:33:01;7.70;99.90
47961;DHT22;33721;48.852;9.936;2023-12-07T13:35:27;7.40;99.90
47961;DHT22;33721;48.852;9.936;2023-12-07T13:37:53;7.20;99.90
47961;DHT22;33721;48.852;9.936;2023-12-07T13:40:18;7.00;99.90
47961;DHT22;33721;48.852;9.936;2023-12-07T13:42:44;7.20;99.90
47961;DHT22;33721;48.852;9.936;2023-12-07T13:45:10;7.30;99.90
47961;DHT22;33721;48.852;9.936;2023-12-07T13:47:35;7.40;99.90
47961;DHT22;33721;48.852;9.936;2023-12-07T13:50:04;7.50;99.90
47961;DHT22;33721;48.852;9.936;2023-12-07T13:52:30;7.30;99.90
47961;DHT22;33721;48.852;9.936;2023-12-07T13:54:56;7.20;99.90
47961;DHT22;33721;48.852;9.936;2023-12-07T13:57:23;7.20;99.90
47961;DHT22;33721;48.852;9.936;2023-12-07T13:59:53;7.00;99.90
47961;DHT22;33721;48.852;9.936;2023-12-07T14:02:19;6.90;99.90
47961;DHT22;33721;48.852;9.936;2023-12-07T14:04:46;6.60;99.90
47961;DHT22;33721;48.852;9.936;2023-12-07T14:07:16;6.50;99.90
47961;DHT22;33721;48.852;9.936;2023-12-07T14:09:44;6.40;99.90
47961;DHT22;33721;48.852;9.936;2023-12-07T14:12:10;6.30;99.90
47961;DHT22;33721;48.852;9.936;2023-12-07T14:14:40;6.20;99.90
47961;DHT22;33721;48.852;9.936;2023-12-07T14:17:06;6.20;99.90
47961;DHT22;33721;48.852;9.936;2023-12-07T14:19:32;6.10;99.90
47961;DHT22;33721;48.852;9.936;2023-12-07T14:21:58;6.00;99.90
47961;DHT22;33721;48.852;9.936;2023-12-07T14:24:24;5.80;99.90
47961;DHT22;33721;48.852;9.936;2023-12-07T14:26:50;5.80;99.90
47961;DHT22;33721;48.852;9.936;2023-12-07T14:29:16;5.80;99.90
47961;DHT22;33721;48.852;9.936;2023-12-07T14:31:45;5.90;99.90
47961;DHT22;33721;48.852;9.936;2023-12-07T14:34:10;5.80;99.90
47961;DHT22;33721;48.852;9.936;2023-12-07T14:36:36;5.90;99.90
47961;DHT22;33721;48.852;9.936;2023-12-07T14:39:04;5.90;99.90
47961;DHT22;33721;48.852;9.936;2023-12-07T14:41:33;6.00;99.90
47961;DHT22;33721;48.852;9.936;2023-12-07T14:43:59;6.00;99.90
47961;DHT22;33721;48.852;9.936;2023-12-07T14:46:24;5.70;99.90
47961;DHT22;33721;48.852;9.936;2023-12-07T14:48:50;5.40;99.90
47961;DHT22;33721;48.852;9.936;2023-12-07T14:51:20;5.30;99.90
47961;DHT22;33721;48.852;9.936;2023-12-07T14:53:46;5.10;99.90
47961;DHT22;33721;48.852;9.936;2023-12-07T14:56:12;4.80;99.90
47961;DHT22;33721;48.852;9.936;2023-12-07T14:58:38;4.70;99.90
47961;DHT22;33721;48.852;9.936;2023-12-07T15:01:06;4.50;99.90
47961;DHT22;33721;48.852;9.936;2023-12-07T15:03:31;4.40;99.90
47961;DHT22;33721;48.852;9.936;2023-12-07T15:05:57;4.20;99.90
47961;DHT22;33721;48.852;9.936;2023-12-07T15:08:22;4.00;99.90
47961;DHT22;33721;48.852;9.936;2023-12-07T15:10:48;4.00;99.90
47961;DHT22;33721;48.852;9.936;2023-12-07T15:13:18;3.80;99.90
47961;DHT22;33721;48.852;9.936;2023-12-07T15:15:43;3.70;99.90
47961;DHT22;33721;48.852;9.936;2023-12-07T15:18:09;3.50;99.90
47961;DHT22;33721;48.852;9.936;2023-12-07T15:20:35;3.40;99.90
47961;DHT22;33721;48.852;9.936;2023-12-07T15:23:01;3.30;99.90
47961;DHT22;33721;48.852;9.936;2023-12-07T15:25:27;3.00;99.90
47961;DHT22;33721;48.852;9.936;2023-12-07T15:27:54;2.90;99.90
47961;DHT22;33721;48.852;9.936;2023-12-07T15:30:20;2.80;99.90
47961;DHT22;33721;48.852;9.936;2023-12-07T15:32:49;2.70;99.90
47961;DHT22;33721;48.852;9.936;2023-12-07T15:35:15;2.70;99.90
47961;DHT22;33721;48.852;9.936;2023-12-07T15:37:41;2.60;99.90
47961;DHT22;33721;48.852;9.936;2023-12-07T15:40:07;2.50;99.90
47961;DHT22;33721;48.852;9.936;2023-12-07T15:42:37;2.50;99.90
47961;DHT22;33721;48.852;9.936;2023-12-07T15:45:05;2.30;99.90
47961;DHT22;33721;48.852;9.936;2023-12-07T15:47:31;2.20;99.90